Time;durP1;ratioP1;P1;durP2;ratioP2;P2;SDS_P1;SDS_P2;PMS_P1;PMS_P2;Temp;Humidity;BMP_temperature;BMP_pressure;BME280_temperature;BME280_humidity;BME280_pressure;Samples;Min_cycle;Max_cycle;Signal;HPM_P1;HPM_P2
2023/06/26 00:03:06;;;;;;;6.65;6.05;;;;;;;24.28;69.43;101332.50;6113886;28;20238;-72
2023/06/26 00:06:28;;;;;;;7.40;6.80;;;;;;;24.12;69.76;101327.41;6133497;28;20326;-72
2023/06/26 00:09:52;;;;;;;7.03;6.45;;;;;;;24.15;69.30;101329.75;6130359;28;20227;-71
2023/06/26 00:13:14;;;;;;;6.78;6.15;;;;;;;24.37;69.14;101321.00;6131826;28;20243;-72
2023/06/26 00:16:36;;;;;;;6.88;6.28;;;;;;;24.21;69.20;101326.13;6131046;28;20578;-72
2023/06/26 00:19:57;;;;;;;7.10;6.57;;;;;;;24.10;69.45;101321.25;6135432;28;20232;-73
2023/06/26 00:23:20;;;;;;;6.05;5.55;;;;;;;23.86;69.94;101316.38;6131765;28;20254;-72
2023/06/26 00:26:40;;;;;;;5.70;5.20;;;;;;;23.94;70.19;101318.91;6142417;28;20238;-71
2023/06/26 00:30:01;;;;;;;6.90;6.30;;;;;;;24.03;70.11;101315.72;6134093;28;20250;-72
2023/06/26 00:33:22;;;;;;;7.15;6.53;;;;;;;24.25;69.74;101317.22;6134135;28;20234;-72
2023/06/26 00:36:43;;;;;;;7.30;6.70;;;;;;;24.39;69.38;101307.84;6136113;28;20227;-72
2023/06/26 00:40:06;;;;;;;6.75;6.15;;;;;;;24.19;69.18;101306.19;6116059;28;20464;-72
2023/06/26 00:43:27;;;;;;;6.78;6.28;;;;;;;24.26;69.53;101305.13;6131152;28;20250;-73
2023/06/26 00:46:48;;;;;;;6.18;5.63;;;;;;;23.97;69.93;101302.78;6132364;28;21341;-72
2023/06/26 00:50:10;;;;;;;6.13;5.63;;;;;;;24.11;69.68;101301.78;6128723;28;20230;-72
2023/06/26 00:53:33;;;;;;;6.10;5.50;;;;;;;23.78;70.65;101295.41;6112742;28;20506;-71
2023/06/26 00:56:55;;;;;;;7.03;6.43;;;;;;;23.67;71.19;101294.13;6131117;28;21139;-72
2023/06/26 01:00:17;;;;;;;6.95;6.45;;;;;;;23.75;70.85;101293.91;6110883;28;20231;-71
2023/06/26 01:03:41;;;;;;;7.43;6.75;;;;;;;23.79;70.85;101283.31;6105946;28;20299;-72
2023/06/26 01:07:03;;;;;;;7.60;6.70;;;;;;;23.55;70.93;101290.28;6131150;28;20292;-71
2023/06/26 01:10:27;;;;;;;6.13;5.63;;;;;;;23.57;71.78;101285.41;6127455;28;20227;-72
2023/06/26 01:13:52;;;;;;;6.30;5.85;;;;;;;23.35;71.81;101288.56;6126980;28;20595;-71
2023/06/26 01:17:14;;;;;;;7.50;6.90;;;;;;;23.34;72.07;101285.00;6127965;28;20250;-71
2023/06/26 01:20:37;;;;;;;6.07;5.63;;;;;;;23.16;72.81;101278.34;6116874;28;20240;-72
2023/06/26 01:24:06;;;;;;;6.03;5.53;;;;;;;23.25;73.05;101277.94;6127423;28;20263;-73
2023/06/26 01:27:32;;;;;;;6.35;5.85;;;;;;;23.42;72.18;101281.19;6122853;28;20234;-72
2023/06/26 01:30:55;;;;;;;6.90;6.28;;;;;;;23.56;71.87;101272.72;6131048;28;20302;-72
2023/06/26 01:34:19;;;;;;;7.22;6.50;;;;;;;23.56;71.38;101267.22;6131840;28;20514;-72
2023/06/26 01:37:39;;;;;;;7.38;6.78;;;;;;;23.29;72.27;101267.38;6103626;28;20582;-73
2023/06/26 01:41:02;;;;;;;6.60;6.10;;;;;;;23.49;72.36;101268.28;6125081;28;20256;-72
2023/06/26 01:44:29;;;;;;;8.25;7.55;;;;;;;23.10;72.61;101252.53;6112384;28;20235;-72
2023/06/26 01:47:53;;;;;;;7.32;6.70;;;;;;;23.22;72.86;101250.84;6120320;28;20527;-72
2023/06/26 01:51:17;;;;;;;6.45;5.80;;;;;;;23.28;72.35;101236.25;6128672;28;20554;-71
2023/06/26 01:54:43;;;;;;;8.40;7.60;;;;;;;23.35;72.81;101239.91;6114270;28;20257;-72
2023/06/26 01:58:05;;;;;;;8.30;7.50;;;;;;;23.17;72.68;101236.88;6122644;28;20262;-71
2023/06/26 02:01:27;;;;;;;7.65;7.03;;;;;;;22.99;72.94;101237.47;6128830;28;20239;-73
2023/06/26 02:04:49;;;;;;;7.53;6.88;;;;;;;23.02;72.90;101234.31;6119287;28;20315;-72
2023/06/26 02:08:10;;;;;;;8.27;7.57;;;;;;;22.81;73.62;101230.88;6115041;28;20223;-71
2023/06/26 02:11:30;;;;;;;7.90;7.20;;;;;;;22.75;74.03;101227.06;6138161;28;20524;-72
2023/06/26 02:14:53;;;;;;;6.35;5.78;;;;;;;22.97;73.61;101223.09;6129120;28;20235;-72
2023/06/26 02:18:22;;;;;;;6.55;6.00;;;;;;;22.50;74.21;101225.00;6096714;28;21053;-73
2023/06/26 02:21:43;;;;;;;7.28;6.57;;;;;;;22.40;74.98;101230.91;6131017;28;20227;-71
2023/06/26 02:25:05;;;;;;;6.75;6.25;;;;;;;22.57;74.82;101223.16;6140790;28;20322;-71
2023/06/26 02:28:27;;;;;;;10.00;6.07;;;;;;;22.56;74.90;101222.31;6133527;28;20239;-71
2023/06/26 02:31:48;;;;;;;7.30;6.60;;;;;;;22.75;74.58;101218.81;6134535;28;20232;-70
2023/06/26 02:35:12;;;;;;;7.28;6.53;;;;;;;22.93;73.49;101220.94;6130282;28;20231;-71
2023/06/26 02:38:36;;;;;;;9.40;6.65;;;;;;;22.58;73.71;101213.84;6129376;28;20546;-71
2023/06/26 02:41:58;;;;;;;7.65;6.95;;;;;;;22.34;74.78;101214.38;6135150;28;20697;-72
2023/06/26 02:45:20;;;;;;;6.93;6.32;;;;;;;22.51;74.64;101205.56;6132864;28;20239;-72
2023/06/26 02:48:41;;;;;;;7.13;6.53;;;;;;;22.76;74.32;101198.50;6123213;28;20635;-70
2023/06/26 02:52:04;;;;;;;5.50;5.10;;;;;;;22.71;74.29;101203.78;6133863;28;20340;-71
2023/06/26 02:55:25;;;;;;;7.10;6.50;;;;;;;22.48;74.15;101203.25;6129564;28;20243;-71
2023/06/26 02:58:47;;;;;;;6.75;6.25;;;;;;;22.76;73.82;101201.25;6138901;28;20260;-70
2023/06/26 03:02:08;;;;;;;6.75;6.05;;;;;;;22.55;74.15;101195.03;6129126;28;20231;-72
2023/06/26 03:05:36;;;;;;;6.60;6.00;;;;;;;22.75;73.47;101193.22;6130121;28;20337;-70
2023/06/26 03:08:58;;;;;;;6.18;5.68;;;;;;;22.46;74.37;101186.13;6133686;28;20507;-71
2023/06/26 03:12:19;;;;;;;6.70;6.10;;;;;;;22.21;74.53;101191.31;6127321;28;20641;-72
2023/06/26 03:15:40;;;;;;;6.78;6.07;;;;;;;22.06;74.64;101186.97;6121597;28;20246;-72
2023/06/26 03:19:01;;;;;;;6.57;5.78;;;;;;;22.20;75.42;101186.84;6117416;28;20235;-70
2023/06/26 03:22:23;;;;;;;7.40;6.70;;;;;;;22.31;75.41;101192.81;6107486;28;20274;-71
2023/06/26 03:25:45;;;;;;;5.82;5.32;;;;;;;22.38;74.58;101185.44;6131020;28;20243;-70
2023/06/26 03:29:17;;;;;;;6.53;5.90;;;;;;;21.96;75.46;101176.38;6132932;28;20239;-71
2023/06/26 03:32:38;;;;;;;7.55;6.95;;;;;;;22.01;75.82;101173.84;6128665;28;20579;-70
2023/06/26 03:36:00;;;;;;;6.00;5.50;;;;;;;22.40;74.94;101178.69;6124862;28;20235;-71
2023/06/26 03:39:22;;;;;;;5.95;5.53;;;;;;;22.24;75.35;101182.63;6131381;28;20238;-70
2023/06/26 03:42:44;;;;;;;6.53;5.82;;;;;;;22.53;75.04;101178.72;6126767;28;20238;-70
2023/06/26 03:46:05;;;;;;;7.32;5.30;;;;;;;22.44;73.84;101174.47;6133552;28;20247;-71
2023/06/26 03:49:26;;;;;;;6.55;6.00;;;;;;;22.41;74.62;101168.53;6104872;28;20235;-71
2023/06/26 03:52:47;;;;;;;5.75;5.25;;;;;;;22.30;74.61;101167.22;6097809;28;20313;-70
2023/06/26 03:56:08;;;;;;;6.20;5.70;;;;;;;22.60;74.23;101154.91;6138038;28;20234;-70
2023/06/26 03:59:30;;;;;;;6.90;6.30;;;;;;;22.73;73.88;101154.06;6118026;28;20538;-70
2023/06/26 04:02:52;;;;;;;6.15;5.55;;;;;;;22.60;73.07;101154.91;6123482;28;20498;-70
2023/06/26 04:06:13;;;;;;;5.78;5.10;;;;;;;22.81;73.33;101145.63;6121371;28;20247;-71
2023/06/26 04:09:34;;;;;;;8.63;6.85;;;;;;;22.92;72.22;101151.38;6129296;28;20227;-71
2023/06/26 04:12:54;;;;;;;6.15;5.65;;;;;;;22.64;72.95;101155.31;6122445;28;20633;-72
2023/06/26 04:16:16;;;;;;;6.50;6.00;;;;;;;22.64;73.43;101144.31;6137724;28;20227;-70
2023/06/26 04:19:38;;;;;;;6.70;6.07;;;;;;;23.14;72.62;101141.00;6131738;28;20239;-71
2023/06/26 04:22:59;;;;;;;6.22;5.72;;;;;;;22.48;73.33;101129.03;6129089;28;20250;-70
2023/06/26 04:26:19;;;;;;;6.13;5.50;;;;;;;22.88;72.90;101130.00;6138799;28;20321;-70
2023/06/26 04:29:40;;;;;;;10.20;7.10;;;;;;;23.28;72.65;101123.41;6122839;28;20246;-71
2023/06/26 04:33:03;;;;;;;7.35;5.75;;;;;;;22.99;72.52;101123.84;6123179;28;20322;-71
2023/06/26 04:36:28;;;;;;;6.93;6.20;;;;;;;23.33;71.84;101123.69;6132759;28;20476;-71
2023/06/26 04:39:49;;;;;;;5.97;5.40;;;;;;;23.39;71.27;101121.97;6124701;28;20527;-71
2023/06/26 04:43:10;;;;;;;6.07;5.47;;;;;;;23.12;72.07;101121.13;6121628;28;20282;-72
2023/06/26 04:46:30;;;;;;;7.78;6.97;;;;;;;22.92;72.18;101112.03;6123496;28;20235;-72
2023/06/26 04:49:52;;;;;;;6.63;5.55;;;;;;;23.46;71.60;101109.06;6130915;28;20633;-71
2023/06/26 04:53:15;;;;;;;6.47;5.88;;;;;;;23.65;71.08;101102.66;6126630;28;20243;-70
2023/06/26 04:56:36;;;;;;;7.30;6.70;;;;;;;23.69;70.22;101106.69;6116658;28;20302;-72
2023/06/26 04:59:57;;;;;;;7.07;6.45;;;;;;;23.67;70.49;101106.03;6139945;28;20352;-70
2023/06/26 05:03:26;;;;;;;6.07;5.47;;;;;;;23.42;71.06;101096.78;6130838;28;22571;-71
2023/06/26 05:06:49;;;;;;;9.68;6.65;;;;;;;23.37;71.24;101100.16;6130595;28;20234;-71
2023/06/26 05:10:11;;;;;;;5.63;5.20;;;;;;;23.42;70.74;101099.53;6131638;28;20234;-71
2023/06/26 05:13:31;;;;;;;6.63;5.50;;;;;;;23.55;70.66;101097.59;6133629;28;20333;-70
2023/06/26 05:16:52;;;;;;;6.20;5.60;;;;;;;23.72;69.90;101097.97;6133155;28;20239;-72
2023/06/26 05:20:13;;;;;;;6.90;6.30;;;;;;;23.15;70.22;101093.19;6097924;28;20242;-72
2023/06/26 05:23:36;;;;;;;6.20;5.60;;;;;;;22.99;70.84;101077.09;6113898;28;20270;-72
2023/06/26 05:26:57;;;;;;;6.43;5.88;;;;;;;23.14;70.50;101074.97;6125327;28;20621;-72
2023/06/26 05:30:22;;;;;;;6.07;5.57;;;;;;;23.41;70.05;101071.16;6125762;28;20332;-78
2023/06/26 05:33:45;;;;;;;6.60;5.95;;;;;;;23.25;70.41;101067.97;6109942;28;20640;-71
2023/06/26 05:37:07;;;;;;;9.85;5.88;;;;;;;23.36;70.45;101062.72;6119453;28;20227;-75
2023/06/26 05:40:30;;;;;;;6.75;6.15;;;;;;;23.04;70.97;101069.91;6117448;28;20263;-71
2023/06/26 05:43:54;;;;;;;7.00;6.35;;;;;;;23.40;70.69;101058.47;6124736;28;20620;-71
2023/06/26 05:47:15;;;;;;;7.43;6.57;;;;;;;23.69;69.95;101052.47;6113447;28;20645;-73
2023/06/26 05:50:37;;;;;;;6.53;5.93;;;;;;;23.58;69.89;101055.03;6113690;28;20329;-71
2023/06/26 05:53:58;;;;;;;5.95;5.45;;;;;;;23.89;69.33;101048.75;6112961;28;20246;-72
2023/06/26 05:57:20;;;;;;;6.60;6.00;;;;;;;23.91;68.44;101047.47;6113446;28;20242;-70
2023/06/26 06:00:42;;;;;;;6.03;5.53;;;;;;;24.20;68.55;101044.19;6139683;28;20779;-71
2023/06/26 06:04:03;;;;;;;6.15;5.55;;;;;;;24.58;67.44;101042.25;6128119;28;20241;-70
2023/06/26 06:07:23;;;;;;;7.63;6.28;;;;;;;24.78;66.62;101042.13;6104773;28;20240;-72
2023/06/26 06:10:44;;;;;;;5.80;5.30;;;;;;;24.38;67.49;101036.03;6143111;28;20507;-73
2023/06/26 06:14:06;;;;;;;14.45;6.82;;;;;;;24.85;66.26;101036.53;6124812;28;20243;-73
2023/06/26 06:17:28;;;;;;;5.63;5.13;;;;;;;24.88;65.99;101034.19;6127625;28;20227;-73
2023/06/26 06:20:49;;;;;;;8.75;5.43;;;;;;;24.93;65.67;101036.28;6142244;28;20262;-75
2023/06/26 06:24:10;;;;;;;6.78;6.10;;;;;;;25.16;65.49;101030.94;6137737;28;20714;-70
2023/06/26 06:27:31;;;;;;;5.18;4.68;;;;;;;25.03;65.15;101026.38;6116150;28;20235;-71
2023/06/26 06:30:53;;;;;;;5.75;5.25;;;;;;;24.89;65.50;101026.72;6143235;28;20247;-72
2023/06/26 06:34:14;;;;;;;6.53;5.90;;;;;;;24.77;65.81;101023.88;6126563;28;20641;-69
2023/06/26 06:37:35;;;;;;;7.03;6.30;;;;;;;24.72;66.11;101020.09;6111996;28;20503;-72
2023/06/26 06:40:56;;;;;;;5.38;4.82;;;;;;;25.00;65.87;101023.25;6131518;28;20251;-73
2023/06/26 06:44:17;;;;;;;6.07;5.57;;;;;;;24.89;66.15;101022.06;6125356;28;21080;-71
2023/06/26 06:47:39;;;;;;;5.93;5.40;;;;;;;25.52;65.06;101008.06;6117016;28;20242;-73
2023/06/26 06:51:00;;;;;;;6.75;5.30;;;;;;;25.79;64.73;100995.59;6124672;28;20247;-72
2023/06/26 06:54:21;;;;;;;8.30;5.15;;;;;;;25.38;64.66;100994.41;6125680;28;20322;-74
2023/06/26 06:57:42;;;;;;;7.72;5.75;;;;;;;25.53;64.71;100988.53;6107577;28;20522;-71
2023/06/26 07:01:04;;;;;;;6.28;5.15;;;;;;;25.79;64.14;100981.78;6123344;28;21886;-73
2023/06/26 07:04:27;;;;;;;4.43;4.03;;;;;;;25.96;63.89;100972.63;6128318;28;20609;-71
2023/06/26 07:07:48;;;;;;;6.78;5.28;;;;;;;25.90;63.81;100981.00;6123894;28;20250;-70
2023/06/26 07:11:09;;;;;;;10.70;5.18;;;;;;;25.60;63.94;100980.13;6133708;28;20699;-70
2023/06/26 07:14:29;;;;;;;5.00;4.60;;;;;;;25.54;64.89;100983.81;6126159;28;20507;-69
2023/06/26 07:17:50;;;;;;;5.85;5.35;;;;;;;25.97;63.87;100982.59;6125644;28;20250;-71
2023/06/26 07:21:13;;;;;;;7.63;5.28;;;;;;;25.82;64.43;100975.81;6145227;28;20613;-71
2023/06/26 07:24:33;;;;;;;6.22;5.63;;;;;;;25.72;64.09;100973.59;6110993;28;20236;-72
2023/06/26 07:27:54;;;;;;;5.30;4.50;;;;;;;25.80;64.26;100972.44;6118173;28;20240;-72
2023/06/26 07:31:16;;;;;;;6.20;5.70;;;;;;;25.67;64.17;100976.22;6120318;28;20255;-71
2023/06/26 07:34:37;;;;;;;6.00;5.50;;;;;;;26.01;63.44;100977.47;6135516;28;20629;-69
2023/06/26 07:37:59;;;;;;;6.47;5.88;;;;;;;26.03;63.38;100975.31;6125489;28;20654;-68
2023/06/26 07:41:20;;;;;;;8.65;6.10;;;;;;;26.21;62.88;100977.19;6138746;28;20256;-68
2023/06/26 07:44:43;;;;;;;5.43;4.82;;;;;;;26.56;62.20;100958.75;6132380;28;20239;-69
2023/06/26 07:48:04;;;;;;;5.15;4.63;;;;;;;26.97;61.96;100967.00;6127617;28;20326;-68
2023/06/26 07:51:25;;;;;;;6.00;5.40;;;;;;;26.92;61.97;100961.34;6138366;28;20708;-70
2023/06/26 07:54:47;;;;;;;5.95;5.35;;;;;;;27.15;60.94;100971.53;6121801;28;20250;-69
2023/06/26 07:58:08;;;;;;;5.07;4.57;;;;;;;27.07;61.85;100970.00;6123657;28;20235;-67
2023/06/26 08:01:29;;;;;;;5.60;5.10;;;;;;;26.72;61.77;100960.84;6126431;28;20244;-67
2023/06/26 08:04:50;;;;;;;5.63;5.18;;;;;;;27.35;61.50;100960.97;6112241;28;20231;-69
2023/06/26 08:08:11;;;;;;;7.43;5.88;;;;;;;27.30;61.19;100955.28;6118651;28;20243;-69
2023/06/26 08:11:33;;;;;;;5.03;4.38;;;;;;;27.83;60.41;100946.72;6116380;28;20251;-69
2023/06/26 08:14:54;;;;;;;8.10;5.53;;;;;;;27.31;59.88;100937.56;6115803;28;20262;-71
2023/06/26 08:18:15;;;;;;;7.63;6.10;;;;;;;27.65;59.61;100939.44;6119569;28;20341;-70
2023/06/26 08:21:35;;;;;;;5.60;4.80;;;;;;;27.84;58.58;100924.28;6124957;28;20613;-68
2023/06/26 08:24:56;;;;;;;5.68;5.18;;;;;;;27.76;58.81;100919.16;6124406;28;20529;-68
2023/06/26 08:28:18;;;;;;;5.97;5.38;;;;;;;27.84;58.45;100915.13;6116102;28;20812;-69
2023/06/26 08:31:40;;;;;;;5.50;5.00;;;;;;;27.71;58.76;100916.28;6129306;28;20290;-67
2023/06/26 08:35:01;;;;;;;5.60;5.20;;;;;;;28.09;58.61;100910.09;6136130;28;20294;-68
2023/06/26 08:38:22;;;;;;;5.95;5.32;;;;;;;28.39;56.86;100919.78;6122922;28;20313;-66
2023/06/26 08:41:43;;;;;;;6.15;5.47;;;;;;;28.19;56.93;100927.75;6129713;28;20234;-69
2023/06/26 08:45:06;;;;;;;6.95;5.78;;;;;;;28.56;56.03;100921.72;6129809;28;20227;-70
2023/06/26 08:48:30;;;;;;;5.25;4.80;;;;;;;28.50;55.21;100925.50;6114759;28;20349;-67
2023/06/26 08:51:53;;;;;;;12.77;4.70;;;;;;;28.02;56.26;100937.97;6130484;28;20231;-68
2023/06/26 08:55:17;;;;;;;4.93;4.40;;;;;;;28.06;55.66;100953.00;6124718;28;20239;-67
2023/06/26 08:58:38;;;;;;;6.45;5.18;;;;;;;27.76;55.38;100968.19;6127678;28;20338;-68
2023/06/26 09:02:02;;;;;;;7.05;4.60;;;;;;;27.85;55.51;100969.50;6134289;28;20239;-67
2023/06/26 09:05:23;;;;;;;5.22;4.80;;;;;;;28.07;55.82;100974.13;6129481;28;20263;-68
2023/06/26 09:08:44;;;;;;;5.20;4.57;;;;;;;28.32;55.89;100976.53;6123389;28;20239;-67
2023/06/26 09:12:06;;;;;;;6.10;5.22;;;;;;;28.40;56.04;100982.50;6121246;28;20286;-68
2023/06/26 09:15:28;;;;;;;6.93;6.15;;;;;;;28.44;56.00;101003.09;6120081;28;20239;-68
2023/06/26 09:18:52;;;;;;;6.80;6.10;;;;;;;28.37;57.04;100999.63;6133340;28;20232;-67
2023/06/26 09:22:15;;;;;;;7.68;6.97;;;;;;;28.32;56.52;101005.09;6130654;28;20322;-68
2023/06/26 09:25:40;;;;;;;7.38;6.68;;;;;;;28.66;56.94;101013.50;6125094;28;20273;-67
2023/06/26 09:29:01;;;;;;;8.73;7.68;;;;;;;29.07;55.67;101018.63;6138472;28;20247;-67
2023/06/26 09:32:25;;;;;;;8.82;7.15;;;;;;;28.81;55.84;101031.25;6126180;28;20238;-66
2023/06/26 09:35:47;;;;;;;8.77;7.90;;;;;;;28.63;56.72;101023.16;6135064;28;20254;-67
2023/06/26 09:39:11;;;;;;;7.07;6.47;;;;;;;28.06;58.11;101029.84;6139939;28;20258;-68
2023/06/26 09:42:32;;;;;;;10.35;7.50;;;;;;;28.30;58.02;101021.16;6115108;28;20235;-67
2023/06/26 09:45:54;;;;;;;7.55;6.53;;;;;;;27.90;58.90;101025.00;6131097;28;20230;-67
2023/06/26 09:49:16;;;;;;;7.20;6.53;;;;;;;27.64;59.20;101034.75;6121756;28;20248;-67
2023/06/26 09:52:42;;;;;;;8.75;6.53;;;;;;;27.31;59.86;101048.34;6132676;28;20238;-68
2023/06/26 09:56:06;;;;;;;7.70;6.90;;;;;;;27.21;60.43;101045.34;6104815;28;20231;-68
2023/06/26 09:59:28;;;;;;;8.95;8.02;;;;;;;26.90;61.33;101050.16;6133965;28;20313;-66
2023/06/26 10:02:48;;;;;;;9.95;7.47;;;;;;;26.45;63.23;101051.69;6125748;28;20227;-67
2023/06/26 10:06:12;;;;;;;10.45;8.38;;;;;;;26.38;64.10;101077.75;6145804;28;20601;-68
2023/06/26 10:09:38;;;;;;;8.48;7.63;;;;;;;26.05;65.91;101059.69;6133731;28;20239;-67
2023/06/26 10:13:03;;;;;;;9.25;8.43;;;;;;;25.93;66.29;101078.09;6129153;28;20234;-68
2023/06/26 10:16:28;;;;;;;8.85;7.95;;;;;;;25.84;67.20;101089.72;6124482;28;20239;-67
2023/06/26 10:19:51;;;;;;;9.80;8.75;;;;;;;25.34;68.58;101086.19;6105316;28;20231;-67
2023/06/26 10:23:12;;;;;;;9.10;8.20;;;;;;;25.21;70.51;101113.91;6119794;28;20239;-66
2023/06/26 10:26:37;;;;;;;10.15;9.10;;;;;;;24.65;73.19;101144.22;6124451;28;20235;-65
2023/06/26 10:30:03;;;;;;;11.98;7.85;;;;;;;24.00;76.55;101141.75;6135309;28;20322;-64
2023/06/26 10:33:24;;;;;;;12.00;7.55;;;;;;;23.30;79.34;101161.75;6124731;28;20234;-64
2023/06/26 10:36:47;;;;;;;7.50;5.35;;;;;;;23.17;82.12;101159.84;6129820;28;20235;-64
2023/06/26 10:40:09;;;;;;;28.98;5.93;;;;;;;23.10;83.33;101170.00;6104345;28;20272;-65
2023/06/26 10:43:32;;;;;;;6.35;4.13;;;;;;;23.41;84.57;101147.38;6108883;28;20239;-64
2023/06/26 10:46:55;;;;;;;5.70;4.93;;;;;;;23.22;85.50;101168.31;6122855;28;20227;-65
2023/06/26 10:50:21;;;;;;;4.70;4.22;;;;;;;23.24;85.38;101171.69;6118513;28;20318;-64
2023/06/26 10:53:43;;;;;;;3.88;3.47;;;;;;;23.00;85.63;101172.31;6130883;28;20253;-63
2023/06/26 10:57:08;;;;;;;3.95;3.00;;;;;;;23.17;85.86;101176.34;6127947;28;20235;-63
2023/06/26 11:00:30;;;;;;;5.57;3.38;;;;;;;23.16;85.40;101182.91;6127124;28;20397;-64
2023/06/26 11:04:03;;;;;;;5.60;4.32;;;;;;;23.88;83.95;101179.28;6121729;28;20311;-65
2023/06/26 11:07:25;;;;;;;5.10;4.28;;;;;;;24.67;82.23;101188.13;6113333;28;20265;-63
2023/06/26 11:10:50;;;;;;;4.63;4.15;;;;;;;25.13;80.43;101194.22;6136485;28;20246;-64
2023/06/26 11:14:12;;;;;;;4.60;3.90;;;;;;;25.39;78.17;101191.25;6134408;28;20231;-64
2023/06/26 11:17:35;;;;;;;6.13;5.60;;;;;;;25.15;77.67;101201.22;6121351;28;20231;-64
2023/06/26 11:21:05;;;;;;;5.50;4.88;;;;;;;25.27;76.86;101204.09;6127747;28;20235;-64
2023/06/26 11:24:27;;;;;;;5.22;4.25;;;;;;;24.95;76.04;101213.47;6136382;28;20227;-64
2023/06/26 11:27:47;;;;;;;4.22;3.80;;;;;;;25.78;74.01;101215.81;6126829;28;20266;-65
2023/06/26 11:31:08;;;;;;;6.45;4.00;;;;;;;25.68;72.00;101215.44;6133489;28;20235;-65
2023/06/26 11:34:35;;;;;;;6.43;3.33;;;;;;;26.56;70.32;101222.38;6131780;28;20262;-63
2023/06/26 11:37:56;;;;;;;6.68;4.00;;;;;;;26.12;69.57;101223.53;6120566;28;20234;-64
2023/06/26 11:41:18;;;;;;;5.10;4.03;;;;;;;24.79;69.52;101219.47;6135434;28;20235;-64
2023/06/26 11:44:43;;;;;;;4.70;3.88;;;;;;;24.23;71.52;101231.16;6124936;28;20251;-69
2023/06/26 11:48:04;;;;;;;4.13;2.65;;;;;;;25.26;69.61;101238.31;6104688;28;20266;-67
2023/06/26 11:51:28;;;;;;;8.85;4.18;;;;;;;26.10;67.12;101258.00;6130959;28;20243;-69
2023/06/26 11:54:49;;;;;;;5.80;3.15;;;;;;;25.89;66.10;101247.34;6107645;28;20599;-69
2023/06/26 11:58:09;;;;;;;5.35;3.38;;;;;;;25.25;66.42;101255.94;6107231;28;20243;-69
2023/06/26 12:01:33;;;;;;;3.38;2.72;;;;;;;24.42;67.00;101257.81;6124514;28;20626;-68
2023/06/26 12:04:54;;;;;;;3.65;2.13;;;;;;;25.24;67.25;101263.34;6124207;28;20244;-68
2023/06/26 12:08:16;;;;;;;5.18;2.42;;;;;;;25.02;65.41;101270.28;6104434;28;20239;-67
2023/06/26 12:11:40;;;;;;;6.32;2.85;;;;;;;24.77;65.60;101260.22;6123384;28;20235;-69
2023/06/26 12:15:02;;;;;;;6.13;2.28;;;;;;;25.14;64.96;101270.44;6124978;28;20366;-69
2023/06/26 12:18:25;;;;;;;4.47;2.17;;;;;;;25.61;64.74;101274.59;6104718;28;20238;-70
2023/06/26 12:21:52;;;;;;;2.53;2.08;;;;;;;26.04;63.91;101272.72;6123691;28;20330;-68
2023/06/26 12:25:14;;;;;;;6.13;2.30;;;;;;;25.37;65.06;101268.78;6136375;28;20239;-69
2023/06/26 12:28:37;;;;;;;4.15;1.98;;;;;;;25.57;65.03;101265.94;6126578;28;20234;-69
2023/06/26 12:31:58;;;;;;;6.50;2.28;;;;;;;26.34;62.34;101286.69;6115980;28;20239;-69
2023/06/26 12:35:20;;;;;;;2.88;1.70;;;;;;;25.60;62.23;101287.56;6122968;28;20678;-70
2023/06/26 12:38:43;;;;;;;2.97;2.05;;;;;;;25.86;61.09;101292.03;6119918;28;20235;-69
2023/06/26 12:42:07;;;;;;;10.82;2.58;;;;;;;26.20;60.87;101286.00;6119789;28;20231;-70
2023/06/26 12:45:28;;;;;;;2.55;2.25;;;;;;;25.66;60.69;101274.78;6118478;28;20223;-70
2023/06/26 12:48:51;;;;;;;9.73;2.72;;;;;;;26.83;59.79;101290.16;6120499;28;20238;-73
2023/06/26 12:52:13;;;;;;;2.92;1.92;;;;;;;26.41;58.12;101287.47;6119196;28;20244;-66
2023/06/26 12:55:34;;;;;;;3.78;1.80;;;;;;;25.99;55.84;101294.69;6121502;28;20238;-70
2023/06/26 12:58:57;;;;;;;3.25;1.85;;;;;;;26.34;53.67;101306.06;6128604;28;20242;-71
2023/06/26 13:02:22;;;;;;;5.47;2.45;;;;;;;26.33;53.17;101301.56;6112468;28;20231;-74
2023/06/26 13:05:44;;;;;;;4.18;1.88;;;;;;;26.81;53.37;101300.63;6126715;28;20231;-69
2023/06/26 13:09:05;;;;;;;4.15;1.95;;;;;;;26.26;52.78;101307.22;6119958;28;20244;-71
2023/06/26 13:12:25;;;;;;;2.88;2.05;;;;;;;26.48;53.31;101313.13;6116440;28;20239;-72
2023/06/26 13:15:48;;;;;;;3.38;2.45;;;;;;;26.73;52.17;101314.78;6120089;28;20230;-72
2023/06/26 13:19:08;;;;;;;5.07;1.80;;;;;;;26.65;52.49;101311.44;6111348;28;20235;-71
2023/06/26 13:22:29;;;;;;;6.57;1.77;;;;;;;27.03;51.90;101313.97;6119795;28;20293;-71
2023/06/26 13:25:51;;;;;;;4.15;3.08;;;;;;;27.20;51.71;101299.28;6141224;28;20678;-72
2023/06/26 13:29:12;;;;;;;2.63;1.67;;;;;;;27.17;51.50;101287.78;6122365;28;20235;-69
2023/06/26 13:32:34;;;;;;;2.50;1.67;;;;;;;27.36;50.64;101292.25;6115961;28;20255;-69
2023/06/26 13:35:55;;;;;;;4.32;1.55;;;;;;;26.68;50.99;101300.75;6119734;28;20243;-68
2023/06/26 13:39:16;;;;;;;5.13;2.67;;;;;;;26.63;50.87;101302.53;6132800;28;20246;-67
2023/06/26 13:42:38;;;;;;;1.60;1.40;;;;;;;26.17;51.53;101303.03;6115613;28;20519;-70
2023/06/26 13:45:59;;;;;;;2.38;1.10;;;;;;;26.34;52.46;101322.66;6122955;28;20246;-71
2023/06/26 13:49:21;;;;;;;4.10;1.92;;;;;;;26.71;50.23;101316.03;6126799;28;20243;-71
2023/06/26 13:52:42;;;;;;;2.58;1.42;;;;;;;27.18;50.03;101311.66;6121226;28;20234;-69
2023/06/26 13:56:03;;;;;;;1.80;1.02;;;;;;;26.36;51.17;101315.81;6119651;28;20238;-69
2023/06/26 13:59:25;;;;;;;1.90;1.52;;;;;;;26.58;51.20;101311.50;6133972;28;20242;-69
2023/06/26 14:02:47;;;;;;;1.35;1.00;;;;;;;25.70;52.36;101320.22;6120422;28;20292;-69
2023/06/26 14:06:09;;;;;;;5.53;2.22;;;;;;;25.72;52.75;101320.84;6123399;28;21100;-70
2023/06/26 14:09:31;;;;;;;2.28;1.27;;;;;;;27.03;50.42;101320.38;6132332;28;20341;-70
2023/06/26 14:12:52;;;;;;;2.90;2.05;;;;;;;25.94;51.90;101309.16;6105974;28;20223;-67
2023/06/26 14:16:13;;;;;;;1.15;0.90;;;;;;;27.22;50.79;101319.25;6118822;28;20235;-68
2023/06/26 14:19:34;;;;;;;1.15;1.00;;;;;;;26.87;50.70;101332.06;6127488;28;20235;-67
2023/06/26 14:22:56;;;;;;;3.47;1.88;;;;;;;25.72;51.96;101309.78;6126153;28;20331;-66
2023/06/26 14:26:17;;;;;;;2.30;1.30;;;;;;;25.53;52.16;101321.81;6130644;28;20326;-65
2023/06/26 14:29:38;;;;;;;4.78;1.65;;;;;;;26.09;51.60;101311.63;6132746;28;20358;-65
2023/06/26 14:32:59;;;;;;;1.48;1.38;;;;;;;26.19;51.02;101334.06;6126924;28;20238;-64
2023/06/26 14:36:20;;;;;;;2.28;1.38;;;;;;;26.32;50.65;101335.84;6135436;28;20785;-65
2023/06/26 14:39:42;;;;;;;2.67;1.40;;;;;;;26.54;49.83;101332.41;6134237;28;20232;-65
2023/06/26 14:43:03;;;;;;;1.92;1.30;;;;;;;26.49;50.32;101332.28;6084877;28;20235;-66
2023/06/26 14:46:24;;;;;;;3.60;1.85;;;;;;;27.21;49.52;101347.16;6126676;28;20239;-65
2023/06/26 14:49:45;;;;;;;3.47;2.35;;;;;;;26.97;50.13;101339.84;6135761;28;20231;-67
2023/06/26 14:53:06;;;;;;;2.17;1.35;;;;;;;26.92;48.52;101343.28;6123660;28;20253;-66
2023/06/26 14:56:28;;;;;;;3.25;1.70;;;;;;;26.42;48.07;101345.31;6134289;28;20741;-66
2023/06/26 14:59:52;;;;;;;2.72;1.23;;;;;;;26.37;48.38;101333.25;6117057;28;20227;-65
2023/06/26 15:03:13;;;;;;;4.55;1.33;;;;;;;26.15;48.70;101338.34;6132559;28;20242;-66
2023/06/26 15:06:35;;;;;;;1.45;0.95;;;;;;;25.63;49.42;101345.13;6135707;28;20239;-67
2023/06/26 15:09:56;;;;;;;1.90;0.95;;;;;;;25.23;49.87;101351.91;6121438;28;20614;-65
2023/06/26 15:13:18;;;;;;;1.35;1.25;;;;;;;25.44;50.71;101346.09;6125156;28;20243;-66
2023/06/26 15:16:39;;;;;;;14.90;1.50;;;;;;;26.37;49.38;101358.16;6127227;28;20939;-67
2023/06/26 15:20:00;;;;;;;3.50;1.27;;;;;;;26.04;50.37;101362.00;6140904;28;20593;-66
2023/06/26 15:23:21;;;;;;;1.50;0.95;;;;;;;25.74;51.04;101363.72;6125193;28;20227;-65
2023/06/26 15:26:42;;;;;;;5.47;1.30;;;;;;;24.68;52.82;101356.13;6132585;28;20516;-66
2023/06/26 15:30:06;;;;;;;2.70;1.17;;;;;;;25.02;52.90;101346.72;6113126;28;20629;-66
2023/06/26 15:33:27;;;;;;;8.25;1.33;;;;;;;25.11;52.21;101349.03;6118951;28;20236;-66
2023/06/26 15:36:47;;;;;;;1.23;1.10;;;;;;;25.08;51.79;101357.72;6129630;28;20255;-65
2023/06/26 15:40:09;;;;;;;1.98;1.48;;;;;;;25.20;50.56;101355.13;6125145;28;20227;-65